createdAt,value
2017-03-30T00:00:21.774Z,0
2017-03-30T00:01:29.868Z,0
2017-03-30T00:02:37.954Z,0
2017-03-30T00:03:46.044Z,0
2017-03-30T00:04:54.126Z,0
2017-03-30T00:06:02.217Z,0
2017-03-30T00:07:10.305Z,0
2017-03-30T00:08:18.392Z,0
2017-03-30T00:09:26.488Z,0
2017-03-30T00:10:34.579Z,0
2017-03-30T00:11:42.663Z,0
2017-03-30T00:12:50.752Z,0
2017-03-30T00:13:58.840Z,0
2017-03-30T00:15:06.929Z,0
2017-03-30T00:16:15.018Z,0
2017-03-30T00:17:23.103Z,0
2017-03-30T00:18:31.191Z,0
2017-03-30T00:19:39.279Z,0
2017-03-30T00:20:47.376Z,0
2017-03-30T00:21:55.463Z,0
2017-03-30T00:23:03.557Z,0
2017-03-30T00:24:11.637Z,0
2017-03-30T00:25:19.727Z,0
2017-03-30T00:26:27.820Z,0
2017-03-30T00:27:35.900Z,0
2017-03-30T00:28:43.988Z,0
2017-03-30T00:29:52.086Z,0
2017-03-30T00:31:00.173Z,0
2017-03-30T00:32:08.259Z,0
2017-03-30T00:33:16.350Z,0
2017-03-30T00:34:24.437Z,0
2017-03-30T00:35:32.523Z,0
2017-03-30T00:36:40.614Z,0
2017-03-30T00:37:48.704Z,0
2017-03-30T00:38:56.793Z,0
2017-03-30T00:40:04.876Z,0
2017-03-30T00:41:12.971Z,0
2017-03-30T00:42:21.057Z,0
2017-03-30T00:43:29.145Z,0
2017-03-30T00:44:37.238Z,0
2017-03-30T00:45:45.321Z,0
2017-03-30T00:46:53.402Z,0
2017-03-30T00:48:01.497Z,0
2017-03-30T00:49:09.588Z,0
2017-03-30T00:50:17.675Z,0
2017-03-30T00:51:25.760Z,0
2017-03-30T00:52:33.852Z,0
2017-03-30T00:53:42.015Z,0
2017-03-30T00:54:50.027Z,0
2017-03-30T00:55:58.112Z,0
2017-03-30T00:57:06.207Z,0
2017-03-30T00:58:14.290Z,0
2017-03-30T00:59:22.373Z,0
2017-03-30T01:00:30.464Z,0
2017-03-30T01:01:38.552Z,0
2017-03-30T01:02:46.635Z,0
2017-03-30T01:03:54.721Z,0
2017-03-30T01:05:02.813Z,0
2017-03-30T01:06:10.903Z,0
2017-03-30T01:07:18.991Z,0
2017-03-30T01:08:27.081Z,0
2017-03-30T01:09:35.169Z,0
2017-03-30T01:10:43.282Z,0
2017-03-30T01:11:51.337Z,0
2017-03-30T01:12:59.428Z,0
2017-03-30T01:14:07.519Z,0
2017-03-30T01:15:15.604Z,0
2017-03-30T01:16:23.691Z,0
2017-03-30T01:17:31.785Z,0
2017-03-30T01:18:39.877Z,0
2017-03-30T01:19:47.961Z,0
2017-03-30T01:20:56.057Z,0
2017-03-30T01:22:04.144Z,0
2017-03-30T01:23:12.225Z,0
2017-03-30T01:24:20.321Z,0
2017-03-30T01:25:28.408Z,0
2017-03-30T01:26:36.488Z,0
2017-03-30T01:27:44.580Z,0
2017-03-30T01:28:52.674Z,0
2017-03-30T01:30:00.758Z,0
2017-03-30T01:31:08.849Z,0
2017-03-30T01:32:16.936Z,0
2017-03-30T01:33:25.025Z,0
2017-03-30T01:34:33.113Z,0
2017-03-30T01:35:41.200Z,0
2017-03-30T01:36:49.287Z,0
2017-03-30T01:37:57.369Z,0
2017-03-30T01:39:05.460Z,0
2017-03-30T01:40:13.548Z,0
2017-03-30T01:41:21.637Z,0
2017-03-30T01:42:29.722Z,0
2017-03-30T01:43:37.811Z,0
2017-03-30T01:44:45.901Z,0
2017-03-30T01:45:53.988Z,0
2017-03-30T01:47:02.071Z,0
2017-03-30T01:48:10.164Z,0
2017-03-30T01:49:18.254Z,0
2017-03-30T01:50:26.341Z,0
2017-03-30T01:51:34.429Z,0
2017-03-30T01:52:42.515Z,0
2017-03-30T01:53:50.602Z,0
2017-03-30T01:54:58.688Z,0
2017-03-30T01:56:06.777Z,0
2017-03-30T01:57:14.864Z,0
2017-03-30T01:58:22.947Z,0
2017-03-30T01:59:31.037Z,0
2017-03-30T02:00:39.125Z,0
2017-03-30T02:01:47.209Z,0
2017-03-30T02:02:55.294Z,0
2017-03-30T02:04:03.389Z,0
2017-03-30T02:05:11.471Z,0
2017-03-30T02:06:19.561Z,0
2017-03-30T02:07:27.646Z,0
2017-03-30T02:08:35.740Z,0
2017-03-30T02:09:43.834Z,0
2017-03-30T02:10:51.908Z,0
2017-03-30T02:12:00.000Z,0
2017-03-30T02:13:08.086Z,0
2017-03-30T02:14:16.170Z,0
2017-03-30T02:15:24.264Z,0
2017-03-30T02:16:32.344Z,0
2017-03-30T02:17:40.432Z,0
2017-03-30T02:18:48.520Z,0
2017-03-30T02:19:56.607Z,0
2017-03-30T02:21:04.694Z,0
2017-03-30T02:22:12.778Z,0
2017-03-30T02:23:20.865Z,0
2017-03-30T02:24:28.952Z,0
2017-03-30T02:25:37.042Z,0
2017-03-30T02:26:45.126Z,0
2017-03-30T02:27:53.216Z,0
2017-03-30T02:29:01.305Z,0
2017-03-30T02:30:09.392Z,0
2017-03-30T02:31:17.481Z,0
2017-03-30T02:32:25.567Z,0
2017-03-30T02:33:33.657Z,0
2017-03-30T02:34:41.741Z,0
2017-03-30T02:35:49.928Z,0
2017-03-30T02:36:57.909Z,0
2017-03-30T02:38:05.996Z,0
2017-03-30T02:39:14.091Z,0
2017-03-30T02:40:22.177Z,0
2017-03-30T02:41:30.265Z,0
2017-03-30T02:42:38.349Z,0
2017-03-30T02:43:46.444Z,0
2017-03-30T02:44:54.533Z,0
2017-03-30T02:46:02.614Z,0
2017-03-30T02:47:10.707Z,0
2017-03-30T02:48:18.801Z,0
2017-03-30T02:49:26.881Z,0
2017-03-30T02:50:34.965Z,0
2017-03-30T02:51:43.053Z,0
2017-03-30T02:52:51.143Z,0
2017-03-30T02:53:59.228Z,0
2017-03-30T02:55:07.316Z,0
2017-03-30T02:56:15.405Z,0
2017-03-30T02:57:23.488Z,0
2017-03-30T02:58:31.577Z,0
2017-03-30T02:59:39.662Z,0
2017-03-30T03:00:47.748Z,0
2017-03-30T03:01:55.837Z,0
2017-03-30T03:03:03.928Z,0
2017-03-30T03:04:12.012Z,0
2017-03-30T03:05:20.101Z,0
2017-03-30T03:06:28.190Z,0
2017-03-30T03:07:36.277Z,0
2017-03-30T03:08:44.362Z,0
2017-03-30T03:09:52.446Z,0
2017-03-30T03:11:00.538Z,0
2017-03-30T03:12:08.627Z,0
2017-03-30T03:13:16.713Z,0
2017-03-30T03:14:24.805Z,0
2017-03-30T03:15:32.888Z,0
2017-03-30T03:16:40.977Z,0
2017-03-30T03:17:49.057Z,0
2017-03-30T03:18:57.156Z,0
2017-03-30T03:20:05.246Z,0
2017-03-30T03:21:13.333Z,0
2017-03-30T03:22:21.422Z,0
2017-03-30T03:23:29.511Z,0
2017-03-30T03:24:37.597Z,0
2017-03-30T03:25:45.684Z,0
2017-03-30T03:26:53.769Z,0
2017-03-30T03:28:01.857Z,0
2017-03-30T03:29:09.942Z,0
2017-03-30T03:30:18.033Z,0
2017-03-30T03:31:26.128Z,0
2017-03-30T03:32:34.211Z,0
2017-03-30T03:33:42.296Z,0
2017-03-30T03:34:50.384Z,0
2017-03-30T03:35:58.469Z,0
2017-03-30T03:37:06.551Z,0
2017-03-30T03:38:14.642Z,0
2017-03-30T03:39:22.789Z,0
2017-03-30T03:40:30.824Z,0
2017-03-30T03:41:38.913Z,0
2017-03-30T03:42:47.000Z,0
2017-03-30T03:43:55.086Z,0
2017-03-30T03:45:03.169Z,0
2017-03-30T03:46:11.263Z,0
2017-03-30T03:47:19.351Z,0
2017-03-30T03:48:27.431Z,0
2017-03-30T03:49:35.518Z,0
2017-03-30T03:50:43.618Z,0
2017-03-30T03:51:51.707Z,0
2017-03-30T03:52:59.787Z,0
2017-03-30T03:54:07.877Z,0
2017-03-30T03:55:15.959Z,0
2017-03-30T03:56:24.056Z,0
2017-03-30T03:57:32.128Z,0
2017-03-30T03:58:40.220Z,0
2017-03-30T03:59:48.302Z,0
2017-03-30T04:00:56.389Z,0
2017-03-30T04:02:04.478Z,0
2017-03-30T04:03:12.568Z,0
2017-03-30T04:04:20.650Z,0
2017-03-30T04:05:28.735Z,0
2017-03-30T04:06:36.826Z,0
2017-03-30T04:07:44.911Z,0
2017-03-30T04:08:52.997Z,0
2017-03-30T04:10:01.434Z,0
2017-03-30T04:11:09.172Z,0
2017-03-30T04:12:17.257Z,0
2017-03-30T04:13:25.386Z,0
2017-03-30T04:14:33.432Z,0
2017-03-30T04:15:41.518Z,0
2017-03-30T04:16:49.597Z,0
2017-03-30T04:17:57.688Z,0
2017-03-30T04:19:05.774Z,0
2017-03-30T04:20:13.859Z,0
2017-03-30T04:21:21.945Z,0
2017-03-30T04:22:30.036Z,0
2017-03-30T04:23:38.121Z,0
2017-03-30T04:24:46.204Z,0
2017-03-30T04:25:54.296Z,0
2017-03-30T04:27:02.379Z,0
2017-03-30T04:28:10.460Z,0
2017-03-30T04:29:18.550Z,0
2017-03-30T04:30:26.636Z,0
2017-03-30T04:31:34.725Z,0
2017-03-30T04:32:42.806Z,0
2017-03-30T04:33:50.896Z,0
2017-03-30T04:34:58.981Z,0
2017-03-30T04:36:07.066Z,0
2017-03-30T04:37:15.159Z,0
2017-03-30T04:38:23.241Z,0
2017-03-30T04:39:31.323Z,0
2017-03-30T04:40:39.411Z,0
2017-03-30T04:41:47.509Z,0
2017-03-30T04:42:55.591Z,0
2017-03-30T04:44:03.670Z,0
2017-03-30T04:45:11.756Z,0
2017-03-30T04:46:19.843Z,0
2017-03-30T04:47:27.925Z,0
2017-03-30T04:48:36.012Z,0
2017-03-30T04:49:44.099Z,0
2017-03-30T04:50:52.187Z,0
2017-03-30T04:52:00.265Z,0
2017-03-30T04:53:08.354Z,0
2017-03-30T04:54:16.443Z,0
2017-03-30T04:55:24.527Z,0
2017-03-30T04:56:32.608Z,0
2017-03-30T04:57:40.699Z,0
2017-03-30T04:58:48.787Z,0
2017-03-30T04:59:56.876Z,0
2017-03-30T05:01:04.968Z,0
2017-03-30T05:02:13.050Z,0
2017-03-30T05:03:21.137Z,0
2017-03-30T05:04:29.221Z,0
2017-03-30T05:05:37.308Z,0
2017-03-30T05:06:45.395Z,0
2017-03-30T05:07:53.481Z,0
2017-03-30T05:09:01.567Z,0
2017-03-30T05:10:09.654Z,0
2017-03-30T05:11:17.736Z,4
2017-03-30T05:12:25.824Z,0
2017-03-30T05:13:33.909Z,0
2017-03-30T05:14:41.989Z,0
2017-03-30T05:15:50.077Z,4
2017-03-30T05:16:58.165Z,4
2017-03-30T05:18:06.254Z,0
2017-03-30T05:19:14.346Z,4
2017-03-30T05:20:22.431Z,4
2017-03-30T05:21:30.520Z,0
2017-03-30T05:22:38.602Z,4
2017-03-30T05:23:46.683Z,4
2017-03-30T05:24:54.770Z,4
2017-03-30T05:26:02.858Z,4
2017-03-30T05:27:10.948Z,4
2017-03-30T05:28:19.029Z,8
2017-03-30T05:29:27.120Z,4
2017-03-30T05:30:35.207Z,8
2017-03-30T05:31:43.290Z,4
2017-03-30T05:32:51.378Z,8
2017-03-30T05:33:59.463Z,8
2017-03-30T05:35:07.549Z,4
2017-03-30T05:36:15.634Z,8
2017-03-30T05:37:23.721Z,8
2017-03-30T05:38:31.905Z,8
2017-03-30T05:39:39.892Z,8
2017-03-30T05:40:47.979Z,8
2017-03-30T05:41:56.120Z,8
2017-03-30T05:43:04.154Z,12
2017-03-30T05:44:12.239Z,8
2017-03-30T05:45:20.622Z,12
2017-03-30T05:46:28.461Z,8
2017-03-30T05:47:36.490Z,12
2017-03-30T05:48:44.580Z,12
2017-03-30T05:49:52.661Z,16
2017-03-30T05:51:01.323Z,20
2017-03-30T05:52:08.833Z,16
2017-03-30T05:53:16.929Z,16
2017-03-30T05:54:25.013Z,16
2017-03-30T05:55:33.094Z,16
2017-03-30T05:56:41.182Z,20
2017-03-30T05:57:49.270Z,20
2017-03-30T05:58:57.354Z,20
2017-03-30T06:00:05.447Z,20
2017-03-30T06:01:13.901Z,20
2017-03-30T06:02:21.617Z,24
2017-03-30T06:03:29.702Z,24
2017-03-30T06:04:37.788Z,20
2017-03-30T06:05:45.873Z,24
2017-03-30T06:06:53.955Z,24
2017-03-30T06:08:02.043Z,24
2017-03-30T06:09:10.125Z,24
2017-03-30T06:10:18.211Z,24
2017-03-30T06:11:26.295Z,28
2017-03-30T06:12:34.384Z,24
2017-03-30T06:13:42.464Z,24
2017-03-30T06:14:50.552Z,28
2017-03-30T06:15:58.649Z,24
2017-03-30T06:17:06.733Z,24
2017-03-30T06:18:14.820Z,28
2017-03-30T06:19:23.065Z,32
2017-03-30T06:20:30.992Z,32
2017-03-30T06:21:39.077Z,32
2017-03-30T06:22:47.166Z,32
2017-03-30T06:23:55.251Z,28
2017-03-30T06:25:03.360Z,36
2017-03-30T06:26:11.419Z,36
2017-03-30T06:27:19.512Z,44
2017-03-30T06:28:27.594Z,48
2017-03-30T06:29:35.681Z,52
2017-03-30T06:30:43.764Z,52
2017-03-30T06:31:51.849Z,52
2017-03-30T06:32:59.937Z,52
2017-03-30T06:34:08.021Z,48
2017-03-30T06:35:16.112Z,48
2017-03-30T06:36:24.194Z,48
2017-03-30T06:37:32.275Z,44
2017-03-30T06:38:40.360Z,40
2017-03-30T06:39:48.452Z,40
2017-03-30T06:40:56.537Z,36
2017-03-30T06:42:05.139Z,36
2017-03-30T06:43:12.709Z,36
2017-03-30T06:44:20.801Z,32
2017-03-30T06:45:28.972Z,36
2017-03-30T06:46:36.967Z,36
2017-03-30T06:47:45.065Z,40
2017-03-30T06:48:53.137Z,44
2017-03-30T06:50:01.417Z,44
2017-03-30T06:51:09.311Z,40
2017-03-30T06:52:17.399Z,48
2017-03-30T06:53:25.483Z,48
2017-03-30T06:54:33.566Z,48
2017-03-30T06:55:41.655Z,48
2017-03-30T06:56:49.739Z,52
2017-03-30T06:57:57.822Z,48
2017-03-30T06:59:05.975Z,60
2017-03-30T07:00:14.001Z,60
2017-03-30T07:01:22.082Z,56
2017-03-30T07:02:30.169Z,48
2017-03-30T07:03:38.255Z,44
2017-03-30T07:04:46.349Z,44
2017-03-30T07:05:54.425Z,40
2017-03-30T07:07:02.513Z,32
2017-03-30T07:08:10.597Z,32
2017-03-30T07:09:18.684Z,32
2017-03-30T07:10:26.779Z,32
2017-03-30T07:11:34.858Z,36
2017-03-30T07:12:42.938Z,36
2017-03-30T07:13:51.023Z,40
2017-03-30T07:14:59.112Z,36
2017-03-30T07:16:07.207Z,40
2017-03-30T07:17:15.297Z,44
2017-03-30T07:18:23.375Z,44
2017-03-30T07:19:31.461Z,48
2017-03-30T07:20:39.546Z,48
2017-03-30T07:21:47.645Z,56
2017-03-30T07:22:55.718Z,52
2017-03-30T07:24:03.806Z,48
2017-03-30T07:25:11.891Z,48
2017-03-30T07:26:19.983Z,44
2017-03-30T07:27:28.074Z,44
2017-03-30T07:28:36.152Z,40
2017-03-30T07:29:44.234Z,40
2017-03-30T07:30:52.316Z,40
2017-03-30T07:32:00.411Z,44
2017-03-30T07:33:08.490Z,44
2017-03-30T07:34:16.577Z,40
2017-03-30T07:35:24.669Z,36
2017-03-30T07:36:32.747Z,36
2017-03-30T07:37:40.835Z,36
2017-03-30T07:38:48.915Z,40
2017-03-30T07:39:57.000Z,40
2017-03-30T07:41:05.084Z,40
2017-03-30T07:42:13.175Z,36
2017-03-30T07:43:21.256Z,36
2017-03-30T07:44:29.342Z,40
2017-03-30T07:45:37.422Z,36
2017-03-30T07:46:45.512Z,40
2017-03-30T07:47:53.600Z,40
2017-03-30T07:49:01.683Z,40
2017-03-30T07:50:09.773Z,44
2017-03-30T07:51:17.857Z,44
2017-03-30T07:52:25.942Z,44
2017-03-30T07:53:34.028Z,44
2017-03-30T07:54:42.123Z,48
2017-03-30T07:55:50.209Z,48
2017-03-30T07:56:58.293Z,48
2017-03-30T07:58:06.386Z,48
2017-03-30T07:59:14.467Z,48
2017-03-30T08:00:22.548Z,52
2017-03-30T08:01:30.633Z,52
2017-03-30T08:02:38.728Z,52
2017-03-30T08:03:46.812Z,52
2017-03-30T08:04:54.894Z,56
2017-03-30T08:06:02.985Z,52
2017-03-30T08:07:11.074Z,52
2017-03-30T08:08:19.162Z,48
2017-03-30T08:09:27.246Z,48
2017-03-30T08:10:35.333Z,48
2017-03-30T08:11:43.413Z,48
2017-03-30T08:12:51.498Z,48
2017-03-30T08:13:59.586Z,48
2017-03-30T08:15:07.676Z,48
2017-03-30T08:16:15.762Z,48
2017-03-30T08:17:23.848Z,48
2017-03-30T08:18:31.940Z,52
2017-03-30T08:19:40.032Z,52
2017-03-30T08:20:48.111Z,48
2017-03-30T08:21:56.204Z,48
2017-03-30T08:23:04.291Z,48
2017-03-30T08:24:12.376Z,52
2017-03-30T08:25:20.473Z,48
2017-03-30T08:26:28.551Z,52
2017-03-30T08:27:36.637Z,52
2017-03-30T08:28:44.717Z,48
2017-03-30T08:29:52.805Z,48
2017-03-30T08:31:00.894Z,52
2017-03-30T08:32:08.982Z,48
2017-03-30T08:33:17.074Z,52
2017-03-30T08:34:25.157Z,52
2017-03-30T08:35:33.239Z,48
2017-03-30T08:36:41.324Z,48
2017-03-30T08:37:49.415Z,52
2017-03-30T08:38:57.500Z,52
2017-03-30T08:40:05.581Z,48
2017-03-30T08:41:13.745Z,48
2017-03-30T08:42:21.763Z,48
2017-03-30T08:43:29.846Z,52
2017-03-30T08:44:37.929Z,48
2017-03-30T08:45:46.021Z,48
2017-03-30T08:46:54.104Z,48
2017-03-30T08:48:02.186Z,48
2017-03-30T08:49:10.277Z,52
2017-03-30T08:50:18.361Z,52
2017-03-30T08:51:26.443Z,52
2017-03-30T08:52:34.531Z,52
2017-03-30T08:53:42.624Z,52
2017-03-30T08:54:50.711Z,52
2017-03-30T08:55:58.795Z,52
2017-03-30T08:57:06.882Z,52
2017-03-30T08:58:14.970Z,52
2017-03-30T08:59:23.052Z,52
2017-03-30T09:00:31.138Z,52
2017-03-30T09:01:39.232Z,52
2017-03-30T09:02:47.320Z,48
2017-03-30T09:03:55.403Z,48
2017-03-30T09:05:03.492Z,52
2017-03-30T09:06:11.585Z,52
2017-03-30T09:07:19.663Z,52
2017-03-30T09:08:27.747Z,52
2017-03-30T09:09:35.868Z,56
2017-03-30T09:10:43.929Z,52
2017-03-30T09:11:52.008Z,52
2017-03-30T09:13:00.094Z,52
2017-03-30T09:14:08.185Z,52
2017-03-30T09:15:16.268Z,52
2017-03-30T09:16:24.352Z,52
2017-03-30T09:17:32.442Z,56
2017-03-30T09:18:40.531Z,56
2017-03-30T09:19:48.615Z,56
2017-03-30T09:20:56.709Z,56
2017-03-30T09:22:04.786Z,56
2017-03-30T09:23:12.898Z,56
2017-03-30T09:24:20.955Z,56
2017-03-30T09:25:29.047Z,60
2017-03-30T09:26:37.129Z,56
2017-03-30T09:27:45.212Z,56
2017-03-30T09:28:53.306Z,56
2017-03-30T09:30:01.390Z,56
2017-03-30T09:31:09.475Z,56
2017-03-30T09:32:17.564Z,56
2017-03-30T09:33:25.653Z,56
2017-03-30T09:34:33.746Z,56
2017-03-30T09:35:41.828Z,56
2017-03-30T09:36:49.920Z,52
2017-03-30T09:37:58.003Z,56
2017-03-30T09:39:06.085Z,52
2017-03-30T09:40:14.175Z,52
2017-03-30T09:41:22.473Z,56
2017-03-30T09:42:30.345Z,56
2017-03-30T09:43:38.427Z,52
2017-03-30T09:44:46.599Z,52
2017-03-30T09:45:54.605Z,56
2017-03-30T09:47:02.689Z,56
2017-03-30T09:48:10.782Z,52
2017-03-30T09:49:18.863Z,56
2017-03-30T09:50:26.946Z,56
2017-03-30T09:51:35.031Z,56
2017-03-30T09:52:43.118Z,60
2017-03-30T09:53:51.204Z,56
2017-03-30T09:54:59.290Z,56
2017-03-30T09:56:07.375Z,60
2017-03-30T09:57:15.468Z,60
2017-03-30T09:58:23.552Z,60
2017-03-30T09:59:31.652Z,60
2017-03-30T10:00:39.732Z,64
2017-03-30T10:01:47.882Z,60
2017-03-30T10:02:55.906Z,60
2017-03-30T10:04:03.995Z,64
2017-03-30T10:05:12.084Z,60
2017-03-30T10:06:20.171Z,60
2017-03-30T10:07:28.256Z,60
2017-03-30T10:08:36.343Z,60
2017-03-30T10:09:44.429Z,60
2017-03-30T10:10:52.511Z,60
2017-03-30T10:12:00.598Z,56
2017-03-30T10:13:08.683Z,56
2017-03-30T10:14:16.765Z,60
2017-03-30T10:15:24.851Z,56
2017-03-30T10:16:32.942Z,56
2017-03-30T10:17:41.027Z,56
2017-03-30T10:18:49.110Z,56
2017-03-30T10:19:57.200Z,56
2017-03-30T10:21:05.288Z,56
2017-03-30T10:22:13.373Z,60
2017-03-30T10:23:21.458Z,60
2017-03-30T10:24:29.547Z,56
2017-03-30T10:25:37.633Z,56
2017-03-30T10:26:45.719Z,56
2017-03-30T10:27:53.814Z,56
2017-03-30T10:29:01.901Z,56
2017-03-30T10:30:09.986Z,56
2017-03-30T10:31:18.070Z,56
2017-03-30T10:32:26.157Z,56
2017-03-30T10:33:34.242Z,56
2017-03-30T10:34:42.325Z,56
2017-03-30T10:35:50.419Z,56
2017-03-30T10:36:58.506Z,56
2017-03-30T10:38:06.593Z,56
2017-03-30T10:39:14.679Z,56
2017-03-30T10:40:22.766Z,52
2017-03-30T10:41:30.851Z,56
2017-03-30T10:42:38.937Z,56
2017-03-30T10:43:47.029Z,56
2017-03-30T10:44:55.116Z,56
2017-03-30T10:46:03.200Z,52
2017-03-30T10:47:11.289Z,52
2017-03-30T10:48:19.373Z,56
2017-03-30T10:49:27.456Z,52
2017-03-30T10:50:35.543Z,52
2017-03-30T10:51:43.635Z,52
2017-03-30T10:52:51.732Z,52
2017-03-30T10:53:59.849Z,56
2017-03-30T10:55:07.909Z,52
2017-03-30T10:56:15.990Z,48
2017-03-30T10:57:24.076Z,48
2017-03-30T10:58:32.167Z,48
2017-03-30T10:59:40.251Z,48
2017-03-30T11:00:48.331Z,48
2017-03-30T11:01:56.418Z,48
2017-03-30T11:03:04.506Z,48
2017-03-30T11:04:12.594Z,52
2017-03-30T11:05:20.798Z,52
2017-03-30T11:06:28.767Z,48
2017-03-30T11:07:36.854Z,48
2017-03-30T11:08:44.948Z,52
2017-03-30T11:09:53.025Z,52
2017-03-30T11:11:01.118Z,48
2017-03-30T11:12:09.198Z,48
2017-03-30T11:13:17.290Z,48
2017-03-30T11:14:25.369Z,44
2017-03-30T11:15:33.458Z,48
2017-03-30T11:16:41.548Z,48
2017-03-30T11:17:49.631Z,44
2017-03-30T11:18:57.720Z,44
2017-03-30T11:20:05.812Z,44
2017-03-30T11:21:13.895Z,44
2017-03-30T11:22:21.975Z,44
2017-03-30T11:23:30.070Z,48
2017-03-30T11:24:38.151Z,44
2017-03-30T11:25:46.236Z,44
2017-03-30T11:26:54.327Z,44
2017-03-30T11:28:02.413Z,48
2017-03-30T11:29:10.497Z,44
2017-03-30T11:30:18.583Z,48
2017-03-30T11:31:26.670Z,48
2017-03-30T11:32:34.759Z,44
2017-03-30T11:33:42.843Z,48
2017-03-30T11:34:50.938Z,48
2017-03-30T11:35:59.023Z,44
2017-03-30T11:37:07.104Z,48
2017-03-30T11:38:15.194Z,44
2017-03-30T11:39:23.281Z,48
2017-03-30T11:40:31.374Z,44
2017-03-30T11:41:39.481Z,44
2017-03-30T11:42:47.538Z,44
2017-03-30T11:43:55.623Z,44
2017-03-30T11:45:03.708Z,48
2017-03-30T11:46:11.795Z,44
2017-03-30T11:47:19.889Z,48
2017-03-30T11:48:27.971Z,44
2017-03-30T11:49:36.060Z,48
2017-03-30T11:50:44.146Z,44
2017-03-30T11:51:52.237Z,44
2017-03-30T11:53:00.319Z,44
2017-03-30T11:54:08.409Z,48
2017-03-30T11:55:16.497Z,48
2017-03-30T11:56:24.585Z,44
2017-03-30T11:57:32.666Z,44
2017-03-30T11:58:40.756Z,48
2017-03-30T11:59:48.854Z,48
2017-03-30T12:00:57.006Z,44
2017-03-30T12:02:05.030Z,44
2017-03-30T12:03:13.112Z,44
2017-03-30T12:04:21.197Z,44
2017-03-30T12:05:29.280Z,40
2017-03-30T12:06:37.370Z,40
2017-03-30T12:07:45.464Z,44
2017-03-30T12:08:53.549Z,40
2017-03-30T12:10:01.633Z,40
2017-03-30T12:11:09.720Z,40
2017-03-30T12:12:17.798Z,40
2017-03-30T12:13:25.885Z,40
2017-03-30T12:14:33.977Z,44
2017-03-30T12:15:42.062Z,44
2017-03-30T12:16:50.149Z,40
2017-03-30T12:17:58.239Z,44
2017-03-30T12:19:06.324Z,44
2017-03-30T12:20:14.414Z,40
2017-03-30T12:21:22.496Z,44
2017-03-30T12:22:30.583Z,40
2017-03-30T12:23:38.669Z,40
2017-03-30T12:24:46.753Z,44
2017-03-30T12:25:54.920Z,44
2017-03-30T12:27:02.933Z,40
2017-03-30T12:28:11.019Z,40
2017-03-30T12:29:19.106Z,40
2017-03-30T12:30:27.195Z,28
2017-03-30T12:31:35.280Z,36
2017-03-30T12:32:43.688Z,36
2017-03-30T12:33:51.452Z,36
2017-03-30T12:34:59.538Z,40
2017-03-30T12:36:07.622Z,40
2017-03-30T12:37:15.712Z,40
2017-03-30T12:38:23.796Z,40
2017-03-30T12:39:31.888Z,44
2017-03-30T12:40:39.970Z,40
2017-03-30T12:41:48.058Z,40
2017-03-30T12:42:56.143Z,44
2017-03-30T12:44:04.229Z,44
2017-03-30T12:45:12.316Z,44
2017-03-30T12:46:20.405Z,44
2017-03-30T12:47:28.564Z,40
2017-03-30T12:48:36.573Z,44
2017-03-30T12:49:44.664Z,44
2017-03-30T12:50:52.747Z,44
2017-03-30T12:52:00.833Z,44
2017-03-30T12:53:08.926Z,44
2017-03-30T12:54:17.011Z,40
2017-03-30T12:55:25.097Z,40
2017-03-30T12:56:33.180Z,44
2017-03-30T12:57:41.267Z,44
2017-03-30T12:58:49.354Z,44
2017-03-30T12:59:57.444Z,40
2017-03-30T13:01:05.538Z,40
2017-03-30T13:02:13.635Z,40
2017-03-30T13:03:21.704Z,40
2017-03-30T13:04:29.857Z,40
2017-03-30T13:05:37.879Z,40
2017-03-30T13:06:45.968Z,44
2017-03-30T13:07:54.057Z,44
2017-03-30T13:09:02.146Z,40
2017-03-30T13:10:10.232Z,44
2017-03-30T13:11:18.318Z,40
2017-03-30T13:12:26.408Z,40
2017-03-30T13:13:34.492Z,40
2017-03-30T13:14:42.582Z,40
2017-03-30T13:15:50.668Z,40
2017-03-30T13:16:58.757Z,44
2017-03-30T13:18:06.845Z,44
2017-03-30T13:19:14.929Z,40
2017-03-30T13:20:23.015Z,48
2017-03-30T13:21:31.199Z,44
2017-03-30T13:22:39.192Z,48
2017-03-30T13:23:47.273Z,48
2017-03-30T13:24:55.365Z,48
2017-03-30T13:26:03.467Z,44
2017-03-30T13:27:11.546Z,44
2017-03-30T13:28:19.629Z,44
2017-03-30T13:29:27.718Z,48
2017-03-30T13:30:35.802Z,44
2017-03-30T13:31:43.886Z,44
2017-03-30T13:32:51.981Z,48
2017-03-30T13:34:00.058Z,48
2017-03-30T13:35:08.142Z,44
2017-03-30T13:36:16.229Z,48
2017-03-30T13:37:24.316Z,48
2017-03-30T13:38:32.401Z,44
2017-03-30T13:39:40.506Z,44
2017-03-30T13:40:48.575Z,48
2017-03-30T13:41:56.662Z,48
2017-03-30T13:43:04.748Z,44
2017-03-30T13:44:12.829Z,48
2017-03-30T13:45:20.917Z,48
2017-03-30T13:46:29.003Z,48
2017-03-30T13:47:37.085Z,48
2017-03-30T13:48:45.176Z,48
2017-03-30T13:49:53.272Z,48
2017-03-30T13:51:01.346Z,48
2017-03-30T13:52:09.437Z,48
2017-03-30T13:53:17.520Z,48
2017-03-30T13:54:25.609Z,48
2017-03-30T13:55:33.687Z,48
2017-03-30T13:56:41.785Z,48
2017-03-30T13:57:49.872Z,44
2017-03-30T13:58:57.952Z,48
2017-03-30T14:00:06.042Z,48
2017-03-30T14:01:14.174Z,44
2017-03-30T14:02:22.214Z,44
2017-03-30T14:03:30.300Z,44
2017-03-30T14:04:38.389Z,44
2017-03-30T14:05:46.479Z,48
2017-03-30T14:06:54.564Z,48
2017-03-30T14:08:02.646Z,44
2017-03-30T14:09:10.734Z,44
2017-03-30T14:10:18.820Z,44
2017-03-30T14:11:26.906Z,40
2017-03-30T14:12:34.999Z,44
2017-03-30T14:13:43.082Z,40
2017-03-30T14:14:51.171Z,40
2017-03-30T14:15:59.257Z,40
2017-03-30T14:17:07.346Z,40
2017-03-30T14:18:15.431Z,40
2017-03-30T14:19:23.523Z,40
2017-03-30T14:20:31.617Z,40
2017-03-30T14:21:39.709Z,40
2017-03-30T14:22:47.789Z,44
2017-03-30T14:23:55.878Z,40
2017-03-30T14:25:03.967Z,44
2017-03-30T14:26:12.056Z,44
2017-03-30T14:27:20.139Z,44
2017-03-30T14:28:28.231Z,44
2017-03-30T14:29:36.321Z,44
2017-03-30T14:30:44.403Z,44
2017-03-30T14:31:52.495Z,44
2017-03-30T14:33:00.580Z,48
2017-03-30T14:34:08.671Z,44
2017-03-30T14:35:16.754Z,44
2017-03-30T14:36:24.843Z,44
2017-03-30T14:37:32.931Z,44
2017-03-30T14:38:41.030Z,48
2017-03-30T14:39:49.122Z,48
2017-03-30T14:40:57.214Z,44
2017-03-30T14:42:05.303Z,48
2017-03-30T14:43:13.396Z,44
2017-03-30T14:44:21.481Z,44
2017-03-30T14:45:29.570Z,48
2017-03-30T14:46:37.657Z,48
2017-03-30T14:47:45.752Z,48
2017-03-30T14:48:53.841Z,44
2017-03-30T14:50:01.916Z,44
2017-03-30T14:51:10.003Z,44
2017-03-30T14:52:18.093Z,48
2017-03-30T14:53:26.184Z,44
2017-03-30T14:54:34.262Z,44
2017-03-30T14:55:42.364Z,44
2017-03-30T14:56:50.449Z,44
2017-03-30T14:57:58.563Z,40
2017-03-30T14:59:06.620Z,40
2017-03-30T15:00:14.710Z,44
2017-03-30T15:01:22.788Z,40
2017-03-30T15:02:30.876Z,44
2017-03-30T15:03:38.965Z,40
2017-03-30T15:04:47.050Z,40
2017-03-30T15:05:55.132Z,40
2017-03-30T15:07:03.223Z,40
2017-03-30T15:08:11.310Z,36
2017-03-30T15:09:19.401Z,32
2017-03-30T15:10:27.477Z,36
2017-03-30T15:11:35.568Z,36
2017-03-30T15:12:43.653Z,32
2017-03-30T15:13:51.739Z,32
2017-03-30T15:14:59.832Z,32
2017-03-30T15:16:07.917Z,32
2017-03-30T15:17:16.008Z,32
2017-03-30T15:18:24.090Z,36
2017-03-30T15:19:32.180Z,32
2017-03-30T15:20:40.299Z,32
2017-03-30T15:21:48.349Z,28
2017-03-30T15:22:56.439Z,28
2017-03-30T15:24:04.528Z,32
2017-03-30T15:25:12.608Z,28
2017-03-30T15:26:20.697Z,28
2017-03-30T15:27:28.816Z,28
2017-03-30T15:28:36.880Z,28
2017-03-30T15:29:44.965Z,28
2017-03-30T15:30:53.057Z,28
2017-03-30T15:32:01.139Z,28
2017-03-30T15:33:09.224Z,24
2017-03-30T15:34:17.307Z,28
2017-03-30T15:35:25.395Z,28
2017-03-30T15:36:33.479Z,28
2017-03-30T15:37:41.563Z,28
2017-03-30T15:38:49.653Z,24
2017-03-30T15:39:57.738Z,28
2017-03-30T15:41:05.823Z,24
2017-03-30T15:42:13.907Z,24
2017-03-30T15:43:21.999Z,24
2017-03-30T15:44:30.086Z,28
2017-03-30T15:45:38.166Z,24
2017-03-30T15:46:46.258Z,28
2017-03-30T15:47:54.338Z,24
2017-03-30T15:49:02.423Z,28
2017-03-30T15:50:10.511Z,24
2017-03-30T15:51:18.602Z,24
2017-03-30T15:52:26.686Z,24
2017-03-30T15:53:34.769Z,28
2017-03-30T15:54:42.856Z,24
2017-03-30T15:55:50.943Z,24
2017-03-30T15:56:59.030Z,24
2017-03-30T15:58:07.117Z,24
2017-03-30T15:59:15.202Z,24
2017-03-30T16:00:23.282Z,24
2017-03-30T16:01:31.368Z,24
2017-03-30T16:02:39.477Z,24
2017-03-30T16:03:47.547Z,24
2017-03-30T16:04:55.629Z,24
2017-03-30T16:06:03.722Z,24
2017-03-30T16:07:11.808Z,20
2017-03-30T16:08:19.890Z,20
2017-03-30T16:09:27.980Z,24
2017-03-30T16:10:36.069Z,20
2017-03-30T16:11:44.154Z,24
2017-03-30T16:12:52.239Z,20
2017-03-30T16:14:00.326Z,24
2017-03-30T16:15:08.423Z,20
2017-03-30T16:16:16.507Z,20
2017-03-30T16:17:24.585Z,20
2017-03-30T16:18:32.683Z,20
2017-03-30T16:19:40.767Z,20
2017-03-30T16:20:48.854Z,20
2017-03-30T16:21:56.938Z,20
2017-03-30T16:23:05.028Z,20